createdAt,value
2019-03-02T00:02:01.316Z,75.90
2019-03-02T00:04:32.302Z,75.73
2019-03-02T00:07:03.149Z,75.80
2019-03-02T00:09:34.648Z,76.13
2019-03-02T00:12:05.493Z,76.17
2019-03-02T00:14:36.427Z,76.06
2019-03-02T00:17:07.356Z,76.24
2019-03-02T00:19:38.688Z,76.30
2019-03-02T00:22:10.850Z,76.37
2019-03-02T00:24:42.336Z,76.02
2019-03-02T00:27:13.137Z,75.90
2019-03-02T00:29:45.856Z,76.14
2019-03-02T00:32:16.505Z,76.31
2019-03-02T00:34:47.439Z,76.77
2019-03-02T00:37:18.228Z,77.07
2019-03-02T00:39:50.597Z,77.00
2019-03-02T00:42:21.820Z,76.67
2019-03-02T00:44:52.684Z,76.84
2019-03-02T00:47:23.508Z,76.81
2019-03-02T00:49:57.144Z,77.11
2019-03-02T00:52:27.450Z,76.99
2019-03-02T00:54:58.607Z,77.17
2019-03-02T00:57:29.604Z,77.10
2019-03-02T01:00:00.468Z,77.12
2019-03-02T01:02:31.308Z,77.30
2019-03-02T01:05:03.035Z,77.26
2019-03-02T01:07:33.996Z,77.20
2019-03-02T01:10:05.442Z,77.19
2019-03-02T01:12:36.323Z,77.16
2019-03-02T01:15:13.329Z,77.42
2019-03-02T01:17:44.497Z,76.64
2019-03-02T01:20:17.084Z,77.18
2019-03-02T01:22:48.282Z,77.24
2019-03-02T01:25:21.197Z,76.96
2019-03-02T01:27:52.018Z,77.13
2019-03-02T01:30:22.948Z,77.61
2019-03-02T01:32:53.824Z,77.50
2019-03-02T01:35:24.698Z,77.07
2019-03-02T01:37:55.599Z,77.14
2019-03-02T01:40:26.596Z,77.33
2019-03-02T01:42:57.545Z,76.79
2019-03-02T01:45:28.986Z,76.92
2019-03-02T01:47:59.996Z,76.60
2019-03-02T01:50:30.980Z,76.41
2019-03-02T01:53:01.901Z,76.95
2019-03-02T01:55:32.789Z,76.90
2019-03-02T01:58:03.758Z,76.11
2019-03-02T02:00:34.944Z,76.59
2019-03-02T02:03:08.587Z,76.19
2019-03-02T02:05:38.713Z,76.58
2019-03-02T02:08:09.789Z,76.77
2019-03-02T02:10:43.355Z,76.79
2019-03-02T02:13:13.327Z,76.76
2019-03-02T02:15:44.270Z,77.53
2019-03-02T02:18:15.233Z,77.97
2019-03-02T02:20:46.803Z,78.34
2019-03-02T02:23:19.196Z,78.67
2019-03-02T02:25:50.063Z,79.26
2019-03-02T02:28:20.991Z,79.47
2019-03-02T02:30:51.854Z,78.73
2019-03-02T02:33:22.742Z,79.69
2019-03-02T02:35:53.567Z,80.62
2019-03-02T02:38:24.548Z,80.27
2019-03-02T02:40:55.441Z,80.46
2019-03-02T02:43:26.362Z,79.87
2019-03-02T02:45:57.208Z,79.80
2019-03-02T02:48:31.118Z,80.20
2019-03-02T02:51:04.338Z,80.37
2019-03-02T02:53:33.381Z,80.46
2019-03-02T02:56:04.307Z,80.87
2019-03-02T02:58:35.173Z,80.44
2019-03-02T03:01:06.113Z,80.37
2019-03-02T03:03:36.938Z,80.71
2019-03-02T03:06:07.776Z,80.83
2019-03-02T03:08:44.028Z,80.70
2019-03-02T03:11:15.909Z,80.37
2019-03-02T03:13:46.757Z,81.41
2019-03-02T03:16:18.033Z,81.45
2019-03-02T03:18:52.520Z,81.47
2019-03-02T03:21:27.307Z,82.28
2019-03-02T03:23:54.294Z,82.44
2019-03-02T03:26:25.254Z,82.36
2019-03-02T03:28:56.139Z,82.44
2019-03-02T03:31:31.063Z,82.42
2019-03-02T03:33:59.642Z,82.58
2019-03-02T03:36:34.054Z,82.57
2019-03-02T03:39:07.254Z,82.43
2019-03-02T03:41:42.751Z,83.30
2019-03-02T03:44:08.158Z,82.97
2019-03-02T03:46:39.055Z,83.81
2019-03-02T03:49:09.876Z,83.09
2019-03-02T03:51:40.610Z,83.55
2019-03-02T03:54:11.505Z,83.04
2019-03-02T03:56:44.213Z,83.37
2019-03-02T03:59:18.988Z,83.66
2019-03-02T04:01:52.186Z,83.60
2019-03-02T04:04:20.044Z,83.26
2019-03-02T04:06:50.967Z,83.73
2019-03-02T04:09:21.739Z,83.91
2019-03-02T04:11:55.634Z,84.21
2019-03-02T04:14:26.465Z,84.47
2019-03-02T04:17:00.529Z,84.27
2019-03-02T04:19:35.372Z,84.97
2019-03-02T04:22:08.173Z,84.59
2019-03-02T04:24:39.924Z,83.96
2019-03-02T04:27:15.364Z,84.22
2019-03-02T04:29:50.305Z,84.16
2019-03-02T04:32:17.054Z,84.64
2019-03-02T04:34:47.942Z,84.49
2019-03-02T04:37:20.265Z,84.68
2019-03-02T04:39:51.410Z,84.10
2019-03-02T04:42:22.422Z,84.39
2019-03-02T04:44:53.297Z,84.21
2019-03-02T04:47:26.292Z,84.11
2019-03-02T04:50:15.838Z,84.46
2019-03-02T04:52:49.896Z,84.56
2019-03-02T04:55:19.257Z,84.86
2019-03-02T04:57:50.274Z,84.86
2019-03-02T05:00:21.181Z,84.91
2019-03-02T05:02:55.208Z,84.95
2019-03-02T05:05:24.944Z,85.31
2019-03-02T05:07:56.001Z,85.28
2019-03-02T05:10:28.671Z,85.17
2019-03-02T05:12:59.666Z,85.58
2019-03-02T05:15:30.584Z,85.43
2019-03-02T06:14:58.663Z,85.01
2019-03-02T06:17:29.794Z,85.25
2019-03-02T06:20:01.364Z,85.38
2019-03-02T06:22:32.020Z,85.18
2019-03-02T06:25:02.544Z,85.13
2019-03-02T06:27:33.059Z,85.29
2019-03-02T06:30:04.818Z,84.81
2019-03-02T06:32:35.766Z,85.27
2019-03-02T06:35:07.742Z,84.65
2019-03-02T06:37:38.199Z,85.18
2019-03-02T06:40:08.854Z,85.22
2019-03-02T06:42:41.875Z,85.08
2019-03-02T06:45:12.108Z,84.99
2019-03-02T06:47:42.589Z,84.83
2019-03-02T06:50:14.089Z,84.80
2019-03-02T06:52:44.674Z,84.75
2019-03-02T06:55:15.183Z,84.98
2019-03-02T06:57:49.958Z,84.61
2019-03-02T07:00:19.536Z,84.85
2019-03-02T07:02:50.201Z,85.16
2019-03-02T07:05:20.670Z,84.95
2019-03-02T07:07:53.705Z,85.02
2019-03-02T07:10:23.695Z,84.63
2019-03-02T07:12:56.010Z,84.42
2019-03-02T07:15:26.567Z,84.17
2019-03-02T07:18:11.692Z,83.99
2019-03-02T07:20:42.398Z,84.30
2019-03-02T07:23:12.876Z,84.03
2019-03-02T07:25:44.318Z,83.76
2019-03-02T07:28:15.146Z,83.46
2019-03-02T07:30:45.642Z,83.97
2019-03-02T07:33:16.196Z,84.01
2019-03-02T07:35:46.696Z,83.66
2019-03-02T07:38:20.276Z,83.88
2019-03-02T07:40:49.590Z,83.72
2019-03-02T07:43:20.154Z,83.51
2019-03-02T07:45:50.676Z,83.88
2019-03-02T07:48:21.203Z,83.96
2019-03-02T07:50:51.710Z,84.06
2019-03-02T07:53:24.998Z,83.15
2019-03-02T07:55:57.366Z,83.61
2019-03-02T07:58:26.803Z,83.25
2019-03-02T08:00:57.370Z,83.31
2019-03-02T08:03:27.981Z,83.47
2019-03-02T08:05:58.633Z,83.24
2019-03-02T08:08:29.388Z,82.58
2019-03-02T08:10:59.904Z,81.56
2019-03-02T08:13:32.722Z,81.75
2019-03-02T08:16:03.341Z,81.99
2019-03-02T08:18:33.965Z,81.33
2019-03-02T08:21:04.499Z,81.38
2019-03-02T08:23:35.057Z,81.59
2019-03-02T08:26:05.651Z,81.29
2019-03-02T08:28:36.187Z,80.91
2019-03-02T08:31:09.002Z,81.08
2019-03-02T08:33:45.605Z,80.48
2019-03-02T08:36:13.098Z,80.60
2019-03-02T08:38:43.344Z,79.85
2019-03-02T08:41:13.823Z,80.11
2019-03-02T08:43:44.338Z,79.76
2019-03-02T08:46:14.866Z,79.42
2019-03-02T08:48:45.431Z,79.23
2019-03-02T08:51:15.908Z,78.88
2019-03-02T08:53:46.389Z,78.94
2019-03-02T08:56:16.909Z,78.21
2019-03-02T08:58:47.349Z,78.89
2019-03-02T09:01:18.629Z,78.90
2019-03-02T09:03:50.206Z,78.33
2019-03-02T09:06:20.738Z,78.26
2019-03-02T09:08:51.326Z,77.69
2019-03-02T09:11:21.835Z,78.38
2019-03-02T09:13:52.337Z,77.88
2019-03-02T09:16:22.952Z,77.39
2019-03-02T09:18:53.491Z,77.68
2019-03-02T09:21:24.010Z,78.11
2019-03-02T09:24:01.016Z,77.49
2019-03-02T09:26:31.578Z,75.74
2019-03-02T09:29:02.173Z,76.16
2019-03-02T09:31:35.052Z,76.23
2019-03-02T09:34:05.144Z,75.51
2019-03-02T09:36:35.675Z,75.29
2019-03-02T09:39:09.571Z,74.28
2019-03-02T09:41:40.259Z,75.38
2019-03-02T09:44:10.714Z,75.24
2019-03-02T09:46:41.292Z,75.42
2019-03-02T09:49:11.931Z,75.30
2019-03-02T09:51:44.766Z,75.78
2019-03-02T09:54:17.488Z,74.73
2019-03-02T09:56:48.172Z,75.05
2019-03-02T09:59:18.874Z,74.97
2019-03-02T10:01:49.535Z,74.29
2019-03-02T10:04:20.148Z,73.93
2019-03-02T10:06:50.835Z,72.89
2019-03-02T10:09:24.937Z,72.88
2019-03-02T10:11:54.890Z,72.96
2019-03-02T10:14:27.348Z,71.97
2019-03-02T10:16:58.160Z,72.17
2019-03-02T10:19:29.681Z,71.85
2019-03-02T10:22:00.532Z,71.08
2019-03-02T10:24:31.084Z,69.64
2019-03-02T10:27:01.651Z,68.84
2019-03-02T10:29:32.586Z,68.67
2019-03-02T10:32:04.484Z,67.90
2019-03-02T10:34:38.482Z,68.31
2019-03-02T10:37:08.671Z,68.51
2019-03-02T10:39:39.371Z,69.02
2019-03-02T10:42:09.852Z,69.01
2019-03-02T10:44:40.414Z,67.78
2019-03-02T10:47:10.944Z,66.17
2019-03-02T10:49:44.694Z,66.20
2019-03-02T10:52:14.467Z,65.68
2019-03-02T10:54:45.547Z,65.21
2019-03-02T10:57:16.128Z,64.70
2019-03-02T10:59:47.918Z,64.25
2019-03-02T11:02:22.072Z,64.00
2019-03-02T11:05:00.963Z,64.02
2019-03-02T11:07:48.928Z,65.12
2019-03-02T11:10:43.430Z,64.43
2019-03-02T11:13:22.432Z,64.44
2019-03-02T11:16:10.484Z,65.26
2019-03-02T11:19:04.252Z,66.24
2019-03-02T11:21:52.606Z,64.75
2019-03-02T11:24:51.109Z,64.71
2019-03-02T11:27:40.578Z,63.87
2019-03-02T11:30:28.549Z,64.08
2019-03-02T11:33:27.605Z,63.29
2019-03-02T11:36:16.031Z,62.36
2019-03-02T11:39:05.550Z,61.84
2019-03-02T11:41:46.740Z,62.44
2019-03-02T11:44:34.895Z,62.58
2019-03-02T11:47:33.062Z,62.37
2019-03-02T11:50:27.662Z,62.26
2019-03-02T11:53:07.150Z,61.90
2019-03-02T11:55:58.713Z,62.60
2019-03-02T11:58:48.398Z,63.16
2019-03-02T12:01:46.947Z,62.88
2019-03-02T12:04:35.377Z,62.57
2019-03-02T12:07:27.702Z,61.59
2019-03-02T12:10:07.686Z,61.89
2019-03-02T12:12:58.947Z,61.59
2019-03-02T12:16:01.624Z,61.04
2019-03-02T12:18:58.824Z,61.26
2019-03-02T12:22:01.025Z,60.92
2019-03-02T12:24:59.816Z,59.76
2019-03-02T12:27:58.941Z,60.00
2019-03-02T12:30:37.808Z,58.81
2019-03-02T12:33:22.266Z,59.06
2019-03-02T12:36:12.526Z,59.31
2019-03-02T12:38:50.064Z,58.77
2019-03-02T12:41:38.249Z,58.06
2019-03-02T12:44:33.722Z,59.41
2019-03-02T12:47:41.318Z,59.10
2019-03-02T12:50:39.717Z,58.89
2019-03-02T12:53:37.666Z,58.81
2019-03-02T12:56:29.197Z,57.94
2019-03-02T12:59:18.872Z,58.32
2019-03-02T13:02:01.142Z,57.26
2019-03-02T13:04:52.027Z,56.55
2019-03-02T13:07:46.914Z,57.00
2019-03-02T13:10:37.516Z,57.33
2019-03-02T13:13:45.334Z,57.03
2019-03-02T13:16:38.189Z,54.15
2019-03-02T13:19:30.484Z,54.49
2019-03-02T13:22:16.455Z,54.00
2019-03-02T13:25:10.400Z,52.18
2019-03-02T13:27:48.626Z,49.96
2019-03-02T13:30:38.199Z,49.83
2019-03-02T13:33:30.136Z,47.66
2019-03-02T13:36:15.123Z,46.62
2019-03-02T13:39:06.472Z,45.65
2019-03-02T13:41:46.421Z,47.78
2019-03-02T13:44:45.350Z,47.99
2019-03-02T13:47:33.448Z,46.64
2019-03-02T13:50:21.511Z,45.59
2019-03-02T13:53:15.801Z,46.48
2019-03-02T13:56:14.692Z,45.86
2019-03-02T13:58:56.802Z,49.34
2019-03-02T14:01:34.000Z,48.60
2019-03-02T14:04:35.537Z,45.51
2019-03-02T14:07:22.331Z,45.29
2019-03-02T14:10:15.746Z,47.22
2019-03-02T14:13:14.477Z,45.01
2019-03-02T14:15:51.186Z,44.50
2019-03-02T14:18:29.702Z,46.97
2019-03-02T14:21:22.679Z,48.02
2019-03-02T14:24:10.229Z,49.06
2019-03-02T14:26:52.295Z,49.90
2019-03-02T14:29:43.013Z,50.02
2019-03-02T14:32:32.391Z,48.73
2019-03-02T14:35:11.401Z,49.94
2019-03-02T14:37:53.307Z,52.16
2019-03-02T14:40:52.669Z,52.53
2019-03-02T14:43:39.528Z,52.09
2019-03-02T14:46:41.418Z,51.22
2019-03-02T14:49:37.035Z,51.69
2019-03-02T14:52:28.959Z,51.81
2019-03-02T14:55:15.834Z,52.84
2019-03-02T14:58:07.785Z,53.74
2019-03-02T15:00:55.270Z,53.38
2019-03-02T15:03:43.820Z,53.83
2019-03-02T15:06:28.199Z,53.52
2019-03-02T15:09:25.314Z,53.80
2019-03-02T15:12:17.800Z,53.72
2019-03-02T15:15:05.218Z,55.10
2019-03-02T15:17:57.638Z,54.71
2019-03-02T15:20:56.080Z,54.74
2019-03-02T15:23:48.615Z,54.80
2019-03-02T15:26:28.623Z,55.72
2019-03-02T15:29:13.712Z,56.07
2019-03-02T15:31:51.752Z,56.77
2019-03-02T15:34:34.534Z,57.19
2019-03-02T15:37:24.318Z,58.11
2019-03-02T15:40:08.232Z,58.07
2019-03-02T15:42:58.552Z,58.60
2019-03-02T15:45:48.487Z,59.07
2019-03-02T15:48:36.907Z,59.19
2019-03-02T15:51:20.919Z,60.03
2019-03-02T15:54:14.939Z,60.48
2019-03-02T15:57:02.500Z,60.97
2019-03-02T15:59:55.138Z,61.20
2019-03-02T16:02:44.368Z,61.29
2019-03-02T16:05:23.074Z,61.37
2019-03-02T16:08:14.412Z,62.05
2019-03-02T16:11:02.129Z,61.55
2019-03-02T16:13:56.152Z,62.70
2019-03-02T16:16:45.668Z,63.14
2019-03-02T16:19:34.195Z,63.36
2019-03-02T16:22:23.828Z,64.02
2019-03-02T16:25:06.081Z,64.01
2019-03-02T16:27:47.294Z,64.21
2019-03-02T16:30:35.817Z,64.51
2019-03-02T16:33:32.472Z,64.58
2019-03-02T16:36:20.480Z,64.57
2019-03-02T16:39:10.441Z,64.47
2019-03-02T16:41:59.221Z,64.54
2019-03-02T16:44:56.234Z,65.28
2019-03-02T16:47:58.131Z,65.35
2019-03-02T16:50:59.603Z,65.46
2019-03-02T16:53:49.136Z,66.00
2019-03-02T16:56:45.861Z,65.92
2019-03-02T16:59:32.206Z,66.28
2019-03-02T17:02:19.638Z,66.34
2019-03-02T17:04:57.435Z,66.23
2019-03-02T17:07:46.440Z,66.04
2019-03-02T17:10:43.253Z,66.40
2019-03-02T17:13:33.585Z,66.77
2019-03-02T17:16:23.463Z,66.67
2019-03-02T17:19:12.974Z,66.72
2019-03-02T17:21:56.170Z,67.39
2019-03-02T17:24:47.382Z,67.12
2019-03-02T17:27:43.195Z,67.46
2019-03-02T17:30:42.206Z,67.61
2019-03-02T17:33:46.802Z,67.75
2019-03-02T17:36:41.726Z,67.39
2019-03-02T17:39:40.115Z,67.51
2019-03-02T17:42:28.146Z,67.58
2019-03-02T17:45:06.735Z,67.86
2019-03-02T17:47:49.577Z,67.96
2019-03-02T17:50:53.011Z,67.96
2019-03-02T17:53:46.324Z,67.95
2019-03-02T17:56:42.488Z,68.13
2019-03-02T17:59:30.793Z,67.95
2019-03-02T18:02:23.069Z,67.68
2019-03-02T18:05:15.483Z,67.78
2019-03-02T18:08:04.942Z,68.39
2019-03-02T18:10:54.591Z,68.33
2019-03-02T18:13:43.261Z,68.75
2019-03-02T18:16:41.139Z,68.10
2019-03-02T18:19:10.734Z,68.68
2019-03-02T18:21:41.370Z,68.83
2019-03-02T18:24:11.955Z,69.06
2019-03-02T18:26:42.621Z,69.12
2019-03-02T18:29:13.828Z,69.11
2019-03-02T18:31:44.477Z,69.40
2019-03-02T18:34:20.045Z,69.57
2019-03-02T18:36:53.108Z,69.37
2019-03-02T18:39:25.567Z,69.70
2019-03-02T18:41:54.898Z,69.44
2019-03-02T18:44:27.726Z,69.61
2019-03-02T18:46:57.907Z,69.46
2019-03-02T18:49:51.479Z,69.69
2019-03-02T18:52:28.516Z,69.84
2019-03-02T18:54:59.105Z,70.09
2019-03-02T18:57:29.693Z,70.31
2019-03-02T19:00:00.335Z,70.38
2019-03-02T19:02:30.865Z,70.32
2019-03-02T19:05:01.436Z,70.48
2019-03-02T19:07:31.973Z,70.61
2019-03-02T19:10:04.170Z,69.94
2019-03-02T19:12:34.821Z,70.37
2019-03-02T19:15:05.601Z,70.09
2019-03-02T19:17:44.231Z,70.40
2019-03-02T19:20:14.964Z,69.92
2019-03-02T19:22:45.570Z,70.46
2019-03-02T19:25:16.423Z,70.72
2019-03-02T19:27:47.023Z,70.99
2019-03-02T19:30:19.629Z,71.10
2019-03-02T19:32:50.223Z,71.25
2019-03-02T19:35:20.784Z,71.36
2019-03-02T19:37:51.379Z,71.85
2019-03-02T19:40:25.551Z,71.50
2019-03-02T19:42:56.146Z,71.32
2019-03-02T19:45:26.668Z,71.40
2019-03-02T19:47:57.274Z,71.83
2019-03-02T19:50:27.778Z,71.88
2019-03-02T19:52:58.364Z,72.10
2019-03-02T19:55:28.899Z,72.25
2019-03-02T19:57:59.430Z,72.18
2019-03-02T20:00:30.459Z,72.08
2019-03-02T20:03:01.089Z,72.45
2019-03-02T20:05:31.635Z,72.44
2019-03-02T20:08:03.030Z,72.31
2019-03-02T20:10:33.607Z,72.24
2019-03-02T20:13:04.119Z,72.44
2019-03-02T20:15:34.689Z,72.08
2019-03-02T20:18:05.206Z,72.31
2019-03-02T20:20:35.859Z,72.22
2019-03-02T20:23:06.373Z,72.66
2019-03-02T20:25:36.832Z,72.70
2019-03-02T20:28:07.427Z,72.97
2019-03-02T20:30:37.979Z,73.08
2019-03-02T20:33:08.432Z,73.26
2019-03-02T20:35:39.032Z,73.66
2019-03-02T20:38:09.626Z,74.28
2019-03-02T20:40:40.215Z,74.40
2019-03-02T20:43:10.695Z,74.78
2019-03-02T20:45:41.340Z,74.46
2019-03-02T20:48:11.875Z,74.67
2019-03-02T20:50:43.316Z,74.99
2019-03-02T20:53:13.888Z,75.26
2019-03-02T20:55:44.487Z,75.78
2019-03-02T20:58:15.003Z,75.92
2019-03-02T21:00:45.800Z,75.86
2019-03-02T21:03:16.383Z,76.16
2019-03-02T21:05:47.000Z,76.34
2019-03-02T21:08:17.486Z,76.55
2019-03-02T21:10:48.089Z,76.63
2019-03-02T21:13:18.652Z,76.57
2019-03-02T21:15:49.346Z,77.02
2019-03-02T21:18:19.989Z,77.11
2019-03-02T21:20:50.571Z,77.34
2019-03-02T21:23:21.237Z,77.02
2019-03-02T21:25:51.768Z,77.03
2019-03-02T21:28:22.524Z,76.85
2019-03-02T21:30:53.160Z,77.44
2019-03-02T21:33:23.677Z,77.63
2019-03-02T21:35:54.116Z,77.40
2019-03-02T21:38:24.633Z,77.68
2019-03-02T21:40:55.226Z,77.23
2019-03-02T21:43:25.707Z,77.22
2019-03-02T21:45:56.277Z,76.78
2019-03-02T21:48:26.977Z,76.76
2019-03-02T21:50:58.153Z,76.83
2019-03-02T21:53:28.601Z,76.76
2019-03-02T21:55:59.172Z,76.92
2019-03-02T21:58:29.669Z,76.84
2019-03-02T22:01:00.270Z,76.42
2019-03-02T22:03:30.737Z,76.36
2019-03-02T22:06:01.286Z,76.26
2019-03-02T22:08:31.816Z,76.54
2019-03-02T22:11:06.880Z,76.63
2019-03-02T22:13:37.394Z,76.50
2019-03-02T22:16:07.940Z,76.58
2019-03-02T22:18:38.587Z,76.82
2019-03-02T22:21:09.136Z,76.73
2019-03-02T22:23:39.667Z,76.87
2019-03-02T22:26:10.177Z,76.91
2019-03-02T22:28:40.751Z,77.28
2019-03-02T22:31:11.255Z,76.86
2019-03-02T22:33:41.860Z,77.19
2019-03-02T22:36:12.410Z,76.87
2019-03-02T22:38:43.063Z,77.07
2019-03-02T22:41:13.582Z,77.04
2019-03-02T22:43:44.130Z,77.37
2019-03-02T22:46:14.709Z,77.63
2019-03-02T22:48:45.257Z,77.76
2019-03-02T22:51:15.781Z,77.98
2019-03-02T22:53:46.372Z,77.89
2019-03-02T22:56:16.873Z,77.67
2019-03-02T22:58:46.346Z,78.28
2019-03-02T23:02:22.201Z,78.68
2019-03-02T23:04:52.767Z,78.74
2019-03-02T23:07:23.251Z,78.86
2019-03-02T23:09:53.814Z,79.20
2019-03-02T23:12:24.333Z,79.42
2019-03-02T23:14:54.818Z,79.24
2019-03-02T23:17:25.462Z,79.85
2019-03-02T23:19:57.671Z,80.57
2019-03-02T23:22:28.242Z,81.71
2019-03-02T23:24:58.885Z,82.47
2019-03-02T23:27:29.431Z,83.11
2019-03-02T23:29:59.944Z,83.37
2019-03-02T23:32:30.538Z,83.39
2019-03-02T23:35:01.040Z,83.87
2019-03-02T23:37:31.579Z,84.16
2019-03-02T23:40:02.162Z,84.47
2019-03-02T23:42:32.707Z,85.21
2019-03-02T23:45:03.272Z,85.17
2019-03-02T23:47:33.847Z,85.59
2019-03-02T23:50:04.670Z,85.97
2019-03-02T23:52:35.271Z,86.02
2019-03-02T23:55:05.895Z,86.07
2019-03-02T23:57:36.437Z,86.23
